createdAt,value
2022-08-06T00:20:53.763Z,22.79
2022-08-06T00:49:48.475Z,22.45
2022-08-06T01:17:41.813Z,22.14
2022-08-06T01:45:56.232Z,21.86
2022-08-06T02:14:30.134Z,21.77
2022-08-06T02:42:51.161Z,21.56
2022-08-06T03:11:07.160Z,21.02
2022-08-06T03:39:53.941Z,20.77
2022-08-06T04:08:07.360Z,20.51
2022-08-06T04:36:54.547Z,20.58
2022-08-06T05:05:23.019Z,20.33
2022-08-06T05:33:59.018Z,22.07
2022-08-06T06:03:24.226Z,23.8
2022-08-06T06:31:58.946Z,24.53
2022-08-06T07:00:45.014Z,24.81
2022-08-06T07:28:51.121Z,25.21
2022-08-06T07:57:58.353Z,25.08
2022-08-06T08:26:13.569Z,25.31
2022-08-06T08:57:03.615Z,25.78
2022-08-06T09:23:57.767Z,26.06
2022-08-06T09:52:14.009Z,26.25
2022-08-06T10:20:56.717Z,26.19
2022-08-06T10:50:27.397Z,26.25
2022-08-06T11:18:47.067Z,26.23
2022-08-06T11:47:15.393Z,26.66
2022-08-06T12:15:53.399Z,26.58
2022-08-06T12:44:09.262Z,26.92
2022-08-06T13:12:45.348Z,26.58
2022-08-06T13:41:09.523Z,27.02
2022-08-06T14:09:26.270Z,27.01
2022-08-06T14:37:57.017Z,27.19
2022-08-06T15:06:07.121Z,27.22
2022-08-06T15:34:28.074Z,27.1
2022-08-06T16:02:49.784Z,27.01
2022-08-06T16:31:10.837Z,26.62
2022-08-06T16:59:16.296Z,26.61
2022-08-06T17:27:44.838Z,26.16
2022-08-06T17:56:01.662Z,26.16
2022-08-06T18:24:13.676Z,25.7
2022-08-06T18:52:25.576Z,25.07
2022-08-06T19:20:31.806Z,23.36
2022-08-06T19:48:51.989Z,23.13
2022-08-06T20:17:04.824Z,22.23
2022-08-06T20:45:32.401Z,21.85
2022-08-06T21:14:00.003Z,21.15
2022-08-06T21:42:11.862Z,20.56
2022-08-06T22:10:31.856Z,20.22
2022-08-06T22:38:57.214Z,23.44
2022-08-06T23:07:26.308Z,23.03
2022-08-06T23:35:42.198Z,22.58
